Sunbury, NC (27979)

12:57 AM EDT on October 31, 2014 (GMT -0400)
CGFFARMS | Change Station
CLOSE
Current Station
Personal Weather Station
Location: Corapeake, NC
Elevation: 52 ft
Nearby Weather Stations

Elev 52 ft 36.52 °N, 76.59 °W | Updated 16 seconds ago

Clear
Clear
47.1 °F
Feels Like 47 °F
N
2.7
Wind Variable Wind from East

Today
High -- | Low -- °F
--% Chance of Precip.
Yesterday
High -- | Low -- °F
Precip. -- in
7:28 AM 6:10 PM
Waxing Crescent, 51% visible
Pressure 30.00 in
Visibility 4.0 miles
Clouds
Windchill 47 °F
Dew Point 45 °F
Humidity 92%
Rainfall 0.00 in
Snow Depth Not available.
UV Not available.
Pollen .30 out of 12
Air Quality Not available.
Flu Activity Not available.
METAR KSFQ 310435Z AUTO 00000KT 4SM BR 06/06 A3000 RMK AO2 T00630060

More Conditions Fewer Conditions

Pressure 30.00 in
Visibility 4.0 miles
Clouds
Windchill 47 °F
Dew Point 45 °F
Humidity 92%
Rainfall 0.00 in
Snow Depth Not available.
UV Not available.
Pollen .30 out of 12
Air Quality Not available.
Flu Activity Not available.
METAR KSFQ 310435Z AUTO 00000KT 4SM BR 06/06 A3000 RMK AO2 T00630060

More Conditions Fewer Conditions

10-Day Weather Forecast

Almanac

Astronomy

Oct. 31, 2014 Rise Set
Actual Time
Civil Twilight
Nautical Twilight
Astronomical Twilight
Moon
Length of Visible Light
Length of Day
Tomorrow will be .
, % of the Moon is Illuminated

Today's Extremes

State Highs State Lows

Community

WunderPhotos

Upload Photos

1,766,567 photos uploaded!

WunderBlogs® & News

Nearby

Air Quality

  Air Quality AQ Index Pollutant
Not available.

Snow Depth

Station Depth Elevation

Earthquake Activity

City Distance Mag. Time & Date
Minimum magnitude displayed is 2.5.

Coastal Water Temperatures

Place Temperature

Nearby Weather Stations